sensor_id;sensor_type;location;lat;lon;timestamp;P1;durP1;ratioP1;P2;durP2;ratioP2
13349;SDS011;6744;53.190;6.576;2023-02-04T00:01:29;8.43;;;2.70;;
13349;SDS011;6744;53.190;6.576;2023-02-04T00:03:54;7.10;;;2.50;;
13349;SDS011;6744;53.190;6.576;2023-02-04T00:06:20;7.70;;;2.60;;
13349;SDS011;6744;53.190;6.576;2023-02-04T00:08:45;9.07;;;2.70;;
13349;SDS011;6744;53.190;6.576;2023-02-04T00:11:10;7.70;;;3.07;;
13349;SDS011;6744;53.190;6.576;2023-02-04T00:13:36;8.83;;;2.70;;
13349;SDS011;6744;53.190;6.576;2023-02-04T00:16:01;10.27;;;2.87;;
13349;SDS011;6744;53.190;6.576;2023-02-04T00:18:27;8.63;;;2.60;;
13349;SDS011;6744;53.190;6.576;2023-02-04T00:20:53;9.67;;;3.10;;
13349;SDS011;6744;53.190;6.576;2023-02-04T00:23:18;7.43;;;2.63;;
13349;SDS011;6744;53.190;6.576;2023-02-04T00:25:43;7.77;;;2.77;;
13349;SDS011;6744;53.190;6.576;2023-02-04T00:28:09;9.17;;;2.83;;
13349;SDS011;6744;53.190;6.576;2023-02-04T00:30:34;7.53;;;2.53;;
13349;SDS011;6744;53.190;6.576;2023-02-04T00:32:59;7.07;;;3.00;;
13349;SDS011;6744;53.190;6.576;2023-02-04T00:35:25;9.03;;;2.80;;
13349;SDS011;6744;53.190;6.576;2023-02-04T00:37:50;11.73;;;3.00;;
13349;SDS011;6744;53.190;6.576;2023-02-04T00:40:16;7.93;;;2.53;;
13349;SDS011;6744;53.190;6.576;2023-02-04T00:42:41;8.47;;;2.70;;
13349;SDS011;6744;53.190;6.576;2023-02-04T00:45:07;6.57;;;2.30;;
13349;SDS011;6744;53.190;6.576;2023-02-04T00:47:33;7.70;;;2.63;;
13349;SDS011;6744;53.190;6.576;2023-02-04T00:49:58;8.63;;;2.50;;
13349;SDS011;6744;53.190;6.576;2023-02-04T00:52:24;8.53;;;2.60;;
13349;SDS011;6744;53.190;6.576;2023-02-04T00:54:49;9.90;;;3.33;;
13349;SDS011;6744;53.190;6.576;2023-02-04T00:57:14;6.57;;;2.60;;
13349;SDS011;6744;53.190;6.576;2023-02-04T00:59:40;6.83;;;2.30;;
13349;SDS011;6744;53.190;6.576;2023-02-04T01:02:05;7.27;;;2.50;;
13349;SDS011;6744;53.190;6.576;2023-02-04T01:04:30;6.60;;;2.40;;
13349;SDS011;6744;53.190;6.576;2023-02-04T01:06:56;8.23;;;2.43;;
13349;SDS011;6744;53.190;6.576;2023-02-04T01:09:22;7.80;;;2.37;;
13349;SDS011;6744;53.190;6.576;2023-02-04T01:11:47;8.17;;;2.83;;
13349;SDS011;6744;53.190;6.576;2023-02-04T01:14:12;7.43;;;2.60;;
13349;SDS011;6744;53.190;6.576;2023-02-04T01:16:38;6.33;;;2.37;;
13349;SDS011;6744;53.190;6.576;2023-02-04T01:19:03;9.90;;;2.80;;
13349;SDS011;6744;53.190;6.576;2023-02-04T01:21:29;7.87;;;2.80;;
13349;SDS011;6744;53.190;6.576;2023-02-04T01:23:54;9.23;;;2.67;;
13349;SDS011;6744;53.190;6.576;2023-02-04T01:26:20;9.73;;;2.93;;
13349;SDS011;6744;53.190;6.576;2023-02-04T01:28:45;7.50;;;2.57;;
13349;SDS011;6744;53.190;6.576;2023-02-04T01:31:10;9.93;;;3.03;;
13349;SDS011;6744;53.190;6.576;2023-02-04T01:33:36;4.77;;;2.27;;
13349;SDS011;6744;53.190;6.576;2023-02-04T01:36:01;9.53;;;3.07;;
13349;SDS011;6744;53.190;6.576;2023-02-04T01:38:27;6.57;;;2.37;;
13349;SDS011;6744;53.190;6.576;2023-02-04T01:40:53;9.30;;;2.73;;
13349;SDS011;6744;53.190;6.576;2023-02-04T01:43:18;8.17;;;2.83;;
13349;SDS011;6744;53.190;6.576;2023-02-04T01:45:46;8.07;;;2.40;;
13349;SDS011;6744;53.190;6.576;2023-02-04T01:48:12;9.47;;;2.90;;
13349;SDS011;6744;53.190;6.576;2023-02-04T01:50:44;9.63;;;2.70;;
13349;SDS011;6744;53.190;6.576;2023-02-04T01:53:10;7.13;;;2.63;;
13349;SDS011;6744;53.190;6.576;2023-02-04T01:55:35;7.70;;;2.37;;
13349;SDS011;6744;53.190;6.576;2023-02-04T01:58:01;8.63;;;2.80;;
13349;SDS011;6744;53.190;6.576;2023-02-04T02:00:31;7.20;;;2.57;;
13349;SDS011;6744;53.190;6.576;2023-02-04T02:02:57;7.27;;;2.70;;
13349;SDS011;6744;53.190;6.576;2023-02-04T02:05:24;8.40;;;2.63;;
13349;SDS011;6744;53.190;6.576;2023-02-04T02:07:56;9.30;;;2.83;;
13349;SDS011;6744;53.190;6.576;2023-02-04T02:10:23;7.63;;;2.27;;
13349;SDS011;6744;53.190;6.576;2023-02-04T02:12:48;6.13;;;2.47;;
13349;SDS011;6744;53.190;6.576;2023-02-04T02:15:15;6.83;;;2.30;;
13349;SDS011;6744;53.190;6.576;2023-02-04T02:17:40;7.13;;;2.50;;
13349;SDS011;6744;53.190;6.576;2023-02-04T02:20:10;7.70;;;2.60;;
13349;SDS011;6744;53.190;6.576;2023-02-04T02:22:50;5.97;;;2.53;;
13349;SDS011;6744;53.190;6.576;2023-02-04T02:25:28;7.93;;;2.80;;
13349;SDS011;6744;53.190;6.576;2023-02-04T02:27:54;8.13;;;2.80;;
13349;SDS011;6744;53.190;6.576;2023-02-04T02:30:19;7.33;;;2.40;;
13349;SDS011;6744;53.190;6.576;2023-02-04T02:32:45;7.23;;;2.40;;
13349;SDS011;6744;53.190;6.576;2023-02-04T02:35:11;7.20;;;2.50;;
13349;SDS011;6744;53.190;6.576;2023-02-04T02:37:37;9.67;;;2.70;;
13349;SDS011;6744;53.190;6.576;2023-02-04T02:40:02;7.30;;;2.60;;
13349;SDS011;6744;53.190;6.576;2023-02-04T02:42:28;6.80;;;2.40;;
13349;SDS011;6744;53.190;6.576;2023-02-04T02:44:54;6.43;;;2.67;;
13349;SDS011;6744;53.190;6.576;2023-02-04T02:47:20;8.63;;;2.80;;
13349;SDS011;6744;53.190;6.576;2023-02-04T02:49:50;9.20;;;2.70;;
13349;SDS011;6744;53.190;6.576;2023-02-04T02:52:17;7.77;;;2.50;;
13349;SDS011;6744;53.190;6.576;2023-02-04T02:54:42;7.50;;;2.70;;
13349;SDS011;6744;53.190;6.576;2023-02-04T02:57:14;7.43;;;2.10;;
13349;SDS011;6744;53.190;6.576;2023-02-04T02:59:41;7.83;;;2.50;;
13349;SDS011;6744;53.190;6.576;2023-02-04T03:02:06;8.07;;;2.33;;
13349;SDS011;6744;53.190;6.576;2023-02-04T03:04:35;9.27;;;2.77;;
13349;SDS011;6744;53.190;6.576;2023-02-04T03:07:03;6.43;;;2.60;;
13349;SDS011;6744;53.190;6.576;2023-02-04T03:09:29;8.47;;;2.97;;
13349;SDS011;6744;53.190;6.576;2023-02-04T03:11:54;9.50;;;2.77;;
13349;SDS011;6744;53.190;6.576;2023-02-04T03:14:20;8.13;;;2.57;;
13349;SDS011;6744;53.190;6.576;2023-02-04T03:16:48;8.63;;;3.03;;
13349;SDS011;6744;53.190;6.576;2023-02-04T03:19:13;7.07;;;2.63;;
13349;SDS011;6744;53.190;6.576;2023-02-04T03:21:38;8.17;;;2.53;;
13349;SDS011;6744;53.190;6.576;2023-02-04T03:24:04;6.77;;;2.63;;
13349;SDS011;6744;53.190;6.576;2023-02-04T03:26:30;5.80;;;2.10;;
13349;SDS011;6744;53.190;6.576;2023-02-04T03:28:55;7.87;;;2.83;;
13349;SDS011;6744;53.190;6.576;2023-02-04T03:31:21;7.57;;;2.60;;
13349;SDS011;6744;53.190;6.576;2023-02-04T03:33:46;7.30;;;2.30;;
13349;SDS011;6744;53.190;6.576;2023-02-04T03:36:11;7.13;;;2.37;;
13349;SDS011;6744;53.190;6.576;2023-02-04T03:38:37;8.00;;;2.50;;
13349;SDS011;6744;53.190;6.576;2023-02-04T03:41:02;7.80;;;2.57;;
13349;SDS011;6744;53.190;6.576;2023-02-04T03:43:28;6.27;;;2.67;;
13349;SDS011;6744;53.190;6.576;2023-02-04T03:45:53;6.87;;;2.50;;
13349;SDS011;6744;53.190;6.576;2023-02-04T03:48:18;7.83;;;2.70;;
13349;SDS011;6744;53.190;6.576;2023-02-04T03:50:44;7.73;;;2.30;;
13349;SDS011;6744;53.190;6.576;2023-02-04T03:53:09;6.83;;;2.50;;
13349;SDS011;6744;53.190;6.576;2023-02-04T03:55:35;6.63;;;2.50;;
13349;SDS011;6744;53.190;6.576;2023-02-04T03:58:01;5.57;;;2.10;;
13349;SDS011;6744;53.190;6.576;2023-02-04T04:00:27;6.83;;;2.37;;
13349;SDS011;6744;53.190;6.576;2023-02-04T04:02:52;6.60;;;2.30;;
13349;SDS011;6744;53.190;6.576;2023-02-04T04:05:18;7.03;;;2.60;;
13349;SDS011;6744;53.190;6.576;2023-02-04T04:07:43;7.13;;;2.50;;
13349;SDS011;6744;53.190;6.576;2023-02-04T04:10:09;7.03;;;2.57;;
13349;SDS011;6744;53.190;6.576;2023-02-04T04:12:35;7.80;;;2.63;;
13349;SDS011;6744;53.190;6.576;2023-02-04T04:15:00;4.87;;;2.03;;
13349;SDS011;6744;53.190;6.576;2023-02-04T04:17:26;5.87;;;2.20;;
13349;SDS011;6744;53.190;6.576;2023-02-04T04:19:51;6.47;;;2.40;;
13349;SDS011;6744;53.190;6.576;2023-02-04T04:22:16;5.63;;;1.93;;
13349;SDS011;6744;53.190;6.576;2023-02-04T04:24:42;6.90;;;2.63;;
13349;SDS011;6744;53.190;6.576;2023-02-04T04:27:07;6.13;;;2.30;;
13349;SDS011;6744;53.190;6.576;2023-02-04T04:29:33;6.70;;;2.20;;
13349;SDS011;6744;53.190;6.576;2023-02-04T04:31:58;5.80;;;2.27;;
13349;SDS011;6744;53.190;6.576;2023-02-04T04:34:23;7.73;;;2.90;;
13349;SDS011;6744;53.190;6.576;2023-02-04T04:36:49;5.67;;;1.97;;
13349;SDS011;6744;53.190;6.576;2023-02-04T04:39:14;5.23;;;1.97;;
13349;SDS011;6744;53.190;6.576;2023-02-04T04:41:39;7.17;;;2.30;;
13349;SDS011;6744;53.190;6.576;2023-02-04T04:44:05;5.47;;;1.87;;
13349;SDS011;6744;53.190;6.576;2023-02-04T04:46:30;7.13;;;2.20;;
13349;SDS011;6744;53.190;6.576;2023-02-04T04:48:55;4.93;;;1.80;;
13349;SDS011;6744;53.190;6.576;2023-02-04T04:51:21;6.77;;;2.23;;
13349;SDS011;6744;53.190;6.576;2023-02-04T04:53:46;5.30;;;2.10;;
13349;SDS011;6744;53.190;6.576;2023-02-04T04:56:12;6.63;;;2.10;;
13349;SDS011;6744;53.190;6.576;2023-02-04T04:58:37;5.73;;;1.93;;
13349;SDS011;6744;53.190;6.576;2023-02-04T05:01:02;4.90;;;1.90;;
13349;SDS011;6744;53.190;6.576;2023-02-04T05:03:28;5.37;;;1.90;;
13349;SDS011;6744;53.190;6.576;2023-02-04T05:05:53;5.23;;;2.00;;
13349;SDS011;6744;53.190;6.576;2023-02-04T05:08:18;4.83;;;1.80;;
13349;SDS011;6744;53.190;6.576;2023-02-04T05:10:45;4.43;;;1.80;;
13349;SDS011;6744;53.190;6.576;2023-02-04T05:13:10;5.20;;;1.87;;
13349;SDS011;6744;53.190;6.576;2023-02-04T05:15:35;5.33;;;2.20;;
13349;SDS011;6744;53.190;6.576;2023-02-04T05:18:01;5.23;;;2.10;;
13349;SDS011;6744;53.190;6.576;2023-02-04T05:20:26;5.33;;;1.90;;
13349;SDS011;6744;53.190;6.576;2023-02-04T05:22:52;4.43;;;1.80;;
13349;SDS011;6744;53.190;6.576;2023-02-04T05:25:17;5.43;;;1.90;;
13349;SDS011;6744;53.190;6.576;2023-02-04T05:27:43;3.40;;;1.80;;
13349;SDS011;6744;53.190;6.576;2023-02-04T05:30:09;5.83;;;1.80;;
13349;SDS011;6744;53.190;6.576;2023-02-04T05:32:36;5.97;;;1.90;;
13349;SDS011;6744;53.190;6.576;2023-02-04T05:35:01;5.23;;;1.90;;
13349;SDS011;6744;53.190;6.576;2023-02-04T05:37:27;4.57;;;2.10;;
13349;SDS011;6744;53.190;6.576;2023-02-04T05:39:52;4.00;;;1.80;;
13349;SDS011;6744;53.190;6.576;2023-02-04T05:42:18;4.90;;;1.60;;
13349;SDS011;6744;53.190;6.576;2023-02-04T05:44:43;3.23;;;1.60;;
13349;SDS011;6744;53.190;6.576;2023-02-04T05:47:08;4.20;;;1.53;;
13349;SDS011;6744;53.190;6.576;2023-02-04T05:49:34;6.10;;;1.93;;
13349;SDS011;6744;53.190;6.576;2023-02-04T05:51:59;3.63;;;1.80;;
13349;SDS011;6744;53.190;6.576;2023-02-04T05:54:24;5.50;;;1.97;;
13349;SDS011;6744;53.190;6.576;2023-02-04T05:56:50;7.50;;;2.00;;
13349;SDS011;6744;53.190;6.576;2023-02-04T05:59:15;3.40;;;1.40;;
13349;SDS011;6744;53.190;6.576;2023-02-04T06:01:41;4.00;;;1.70;;
13349;SDS011;6744;53.190;6.576;2023-02-04T06:04:06;6.73;;;2.30;;
13349;SDS011;6744;53.190;6.576;2023-02-04T06:06:32;5.33;;;1.63;;
13349;SDS011;6744;53.190;6.576;2023-02-04T06:08:57;4.63;;;1.63;;
13349;SDS011;6744;53.190;6.576;2023-02-04T06:11:22;4.93;;;1.40;;
13349;SDS011;6744;53.190;6.576;2023-02-04T06:13:48;5.27;;;1.60;;
13349;SDS011;6744;53.190;6.576;2023-02-04T06:16:13;3.90;;;1.60;;
13349;SDS011;6744;53.190;6.576;2023-02-04T06:18:38;4.67;;;1.80;;
13349;SDS011;6744;53.190;6.576;2023-02-04T06:21:04;4.30;;;1.40;;
13349;SDS011;6744;53.190;6.576;2023-02-04T06:23:30;5.83;;;1.70;;
13349;SDS011;6744;53.190;6.576;2023-02-04T06:25:58;4.57;;;1.70;;
13349;SDS011;6744;53.190;6.576;2023-02-04T06:28:23;4.20;;;1.83;;
13349;SDS011;6744;53.190;6.576;2023-02-04T06:30:48;4.37;;;1.60;;
13349;SDS011;6744;53.190;6.576;2023-02-04T06:33:14;5.40;;;1.97;;
13349;SDS011;6744;53.190;6.576;2023-02-04T06:35:39;3.13;;;1.30;;
13349;SDS011;6744;53.190;6.576;2023-02-04T06:38:04;4.63;;;1.80;;
13349;SDS011;6744;53.190;6.576;2023-02-04T06:40:30;5.23;;;1.83;;
13349;SDS011;6744;53.190;6.576;2023-02-04T06:42:55;6.03;;;2.07;;
13349;SDS011;6744;53.190;6.576;2023-02-04T06:45:20;3.53;;;1.53;;
13349;SDS011;6744;53.190;6.576;2023-02-04T06:47:46;4.13;;;1.90;;
13349;SDS011;6744;53.190;6.576;2023-02-04T06:50:11;4.60;;;1.40;;
13349;SDS011;6744;53.190;6.576;2023-02-04T06:52:42;4.57;;;1.90;;
13349;SDS011;6744;53.190;6.576;2023-02-04T06:55:08;3.33;;;1.60;;
13349;SDS011;6744;53.190;6.576;2023-02-04T06:57:33;4.43;;;1.60;;
13349;SDS011;6744;53.190;6.576;2023-02-04T06:59:59;3.93;;;1.63;;
13349;SDS011;6744;53.190;6.576;2023-02-04T07:02:24;5.27;;;1.70;;
13349;SDS011;6744;53.190;6.576;2023-02-04T07:04:50;3.47;;;1.77;;
13349;SDS011;6744;53.190;6.576;2023-02-04T07:07:15;3.83;;;1.90;;
13349;SDS011;6744;53.190;6.576;2023-02-04T07:09:40;5.40;;;1.77;;
13349;SDS011;6744;53.190;6.576;2023-02-04T07:12:06;3.93;;;1.60;;
13349;SDS011;6744;53.190;6.576;2023-02-04T07:14:31;4.20;;;1.50;;
13349;SDS011;6744;53.190;6.576;2023-02-04T07:16:57;3.03;;;1.40;;
13349;SDS011;6744;53.190;6.576;2023-02-04T07:19:22;4.53;;;1.60;;
13349;SDS011;6744;53.190;6.576;2023-02-04T07:21:48;3.57;;;1.60;;
13349;SDS011;6744;53.190;6.576;2023-02-04T07:24:17;4.77;;;1.70;;
13349;SDS011;6744;53.190;6.576;2023-02-04T07:26:43;3.10;;;1.33;;
13349;SDS011;6744;53.190;6.576;2023-02-04T07:29:08;4.53;;;1.60;;
13349;SDS011;6744;53.190;6.576;2023-02-04T07:31:34;3.20;;;1.57;;
13349;SDS011;6744;53.190;6.576;2023-02-04T07:33:59;3.63;;;1.30;;
13349;SDS011;6744;53.190;6.576;2023-02-04T07:36:24;5.37;;;1.80;;
13349;SDS011;6744;53.190;6.576;2023-02-04T07:38:50;4.73;;;1.70;;
13349;SDS011;6744;53.190;6.576;2023-02-04T07:41:15;3.87;;;1.60;;
13349;SDS011;6744;53.190;6.576;2023-02-04T07:43:40;3.73;;;1.60;;
13349;SDS011;6744;53.190;6.576;2023-02-04T07:46:06;4.33;;;1.40;;
13349;SDS011;6744;53.190;6.576;2023-02-04T07:48:31;4.23;;;1.53;;
13349;SDS011;6744;53.190;6.576;2023-02-04T07:50:56;3.80;;;1.80;;
13349;SDS011;6744;53.190;6.576;2023-02-04T07:53:22;4.00;;;1.50;;
13349;SDS011;6744;53.190;6.576;2023-02-04T07:55:47;3.17;;;1.50;;
13349;SDS011;6744;53.190;6.576;2023-02-04T07:58:12;4.57;;;1.70;;
13349;SDS011;6744;53.190;6.576;2023-02-04T08:00:38;3.43;;;1.20;;
13349;SDS011;6744;53.190;6.576;2023-02-04T08:03:03;3.93;;;1.30;;
13349;SDS011;6744;53.190;6.576;2023-02-04T08:05:34;3.00;;;1.50;;
13349;SDS011;6744;53.190;6.576;2023-02-04T08:08:00;3.97;;;1.47;;
13349;SDS011;6744;53.190;6.576;2023-02-04T08:10:26;3.83;;;1.30;;
13349;SDS011;6744;53.190;6.576;2023-02-04T08:12:51;3.20;;;1.20;;
13349;SDS011;6744;53.190;6.576;2023-02-04T08:15:16;4.23;;;1.73;;
13349;SDS011;6744;53.190;6.576;2023-02-04T08:17:42;3.93;;;1.47;;
13349;SDS011;6744;53.190;6.576;2023-02-04T08:20:07;3.43;;;1.50;;
13349;SDS011;6744;53.190;6.576;2023-02-04T08:22:33;4.23;;;1.43;;
13349;SDS011;6744;53.190;6.576;2023-02-04T08:24:59;3.63;;;1.20;;
13349;SDS011;6744;53.190;6.576;2023-02-04T08:27:24;4.07;;;1.60;;
13349;SDS011;6744;53.190;6.576;2023-02-04T08:29:50;3.63;;;1.40;;
13349;SDS011;6744;53.190;6.576;2023-02-04T08:32:15;3.27;;;1.30;;
13349;SDS011;6744;53.190;6.576;2023-02-04T08:34:40;2.93;;;1.30;;
13349;SDS011;6744;53.190;6.576;2023-02-04T08:37:06;4.00;;;1.30;;
13349;SDS011;6744;53.190;6.576;2023-02-04T08:39:31;4.27;;;1.40;;
13349;SDS011;6744;53.190;6.576;2023-02-04T08:41:59;3.50;;;1.60;;
13349;SDS011;6744;53.190;6.576;2023-02-04T08:44:25;3.67;;;1.70;;
13349;SDS011;6744;53.190;6.576;2023-02-04T08:46:50;3.63;;;1.50;;
13349;SDS011;6744;53.190;6.576;2023-02-04T08:49:15;3.40;;;1.40;;
13349;SDS011;6744;53.190;6.576;2023-02-04T08:51:41;4.90;;;1.90;;
13349;SDS011;6744;53.190;6.576;2023-02-04T08:54:06;4.37;;;1.60;;
13349;SDS011;6744;53.190;6.576;2023-02-04T08:56:31;3.37;;;1.27;;
13349;SDS011;6744;53.190;6.576;2023-02-04T08:58:57;2.73;;;1.33;;
13349;SDS011;6744;53.190;6.576;2023-02-04T09:01:22;2.93;;;1.23;;
13349;SDS011;6744;53.190;6.576;2023-02-04T09:03:47;3.97;;;1.30;;
13349;SDS011;6744;53.190;6.576;2023-02-04T09:06:13;4.17;;;1.50;;
13349;SDS011;6744;53.190;6.576;2023-02-04T09:08:38;4.63;;;1.30;;
13349;SDS011;6744;53.190;6.576;2023-02-04T09:11:04;3.73;;;1.37;;
13349;SDS011;6744;53.190;6.576;2023-02-04T09:13:30;4.90;;;1.30;;
13349;SDS011;6744;53.190;6.576;2023-02-04T09:15:56;2.77;;;1.30;;
13349;SDS011;6744;53.190;6.576;2023-02-04T09:18:22;3.30;;;1.20;;
13349;SDS011;6744;53.190;6.576;2023-02-04T09:20:49;3.27;;;1.30;;
13349;SDS011;6744;53.190;6.576;2023-02-04T09:23:14;3.70;;;1.40;;
13349;SDS011;6744;53.190;6.576;2023-02-04T09:25:40;3.90;;;1.43;;
13349;SDS011;6744;53.190;6.576;2023-02-04T09:28:07;3.37;;;1.10;;
13349;SDS011;6744;53.190;6.576;2023-02-04T09:30:36;3.40;;;1.30;;
13349;SDS011;6744;53.190;6.576;2023-02-04T09:33:02;2.40;;;1.10;;
13349;SDS011;6744;53.190;6.576;2023-02-04T09:35:28;2.90;;;1.20;;
13349;SDS011;6744;53.190;6.576;2023-02-04T09:37:53;2.07;;;1.20;;
13349;SDS011;6744;53.190;6.576;2023-02-04T09:40:18;4.27;;;1.60;;
13349;SDS011;6744;53.190;6.576;2023-02-04T09:42:45;3.13;;;1.20;;
13349;SDS011;6744;53.190;6.576;2023-02-04T09:45:17;2.70;;;1.00;;
13349;SDS011;6744;53.190;6.576;2023-02-04T09:47:45;2.63;;;1.27;;
13349;SDS011;6744;53.190;6.576;2023-02-04T09:50:14;3.40;;;1.40;;
13349;SDS011;6744;53.190;6.576;2023-02-04T09:52:41;3.60;;;1.13;;
13349;SDS011;6744;53.190;6.576;2023-02-04T09:55:13;2.77;;;1.50;;
13349;SDS011;6744;53.190;6.576;2023-02-04T09:57:39;3.73;;;1.40;;
13349;SDS011;6744;53.190;6.576;2023-02-04T10:00:10;2.87;;;1.10;;
13349;SDS011;6744;53.190;6.576;2023-02-04T10:02:39;2.90;;;1.00;;
13349;SDS011;6744;53.190;6.576;2023-02-04T10:05:05;2.00;;;1.07;;
13349;SDS011;6744;53.190;6.576;2023-02-04T10:07:30;2.40;;;1.10;;
13349;SDS011;6744;53.190;6.576;2023-02-04T10:09:56;4.07;;;1.30;;
13349;SDS011;6744;53.190;6.576;2023-02-04T10:12:22;2.80;;;1.27;;
13349;SDS011;6744;53.190;6.576;2023-02-04T10:14:50;3.03;;;0.90;;
13349;SDS011;6744;53.190;6.576;2023-02-04T10:17:18;3.80;;;1.33;;
13349;SDS011;6744;53.190;6.576;2023-02-04T10:19:45;2.93;;;1.20;;
13349;SDS011;6744;53.190;6.576;2023-02-04T10:22:14;2.60;;;1.03;;
13349;SDS011;6744;53.190;6.576;2023-02-04T10:24:41;3.30;;;1.10;;
13349;SDS011;6744;53.190;6.576;2023-02-04T10:27:07;2.73;;;1.03;;
13349;SDS011;6744;53.190;6.576;2023-02-04T10:29:33;2.87;;;1.40;;
13349;SDS011;6744;53.190;6.576;2023-02-04T10:31:58;2.57;;;1.07;;
13349;SDS011;6744;53.190;6.576;2023-02-04T10:34:37;4.03;;;1.20;;
13349;SDS011;6744;53.190;6.576;2023-02-04T10:37:19;2.83;;;1.40;;
13349;SDS011;6744;53.190;6.576;2023-02-04T10:39:45;4.50;;;1.20;;
13349;SDS011;6744;53.190;6.576;2023-02-04T10:42:24;2.00;;;1.00;;
13349;SDS011;6744;53.190;6.576;2023-02-04T10:44:50;2.90;;;1.27;;
13349;SDS011;6744;53.190;6.576;2023-02-04T10:47:17;2.30;;;1.17;;
13349;SDS011;6744;53.190;6.576;2023-02-04T10:49:51;3.33;;;1.40;;
13349;SDS011;6744;53.190;6.576;2023-02-04T10:52:18;2.53;;;1.00;;
13349;SDS011;6744;53.190;6.576;2023-02-04T10:54:44;3.37;;;1.37;;
13349;SDS011;6744;53.190;6.576;2023-02-04T10:59:41;3.13;;;1.20;;
13349;SDS011;6744;53.190;6.576;2023-02-04T11:04:56;2.73;;;1.10;;
13349;SDS011;6744;53.190;6.576;2023-02-04T11:07:22;4.40;;;1.20;;
13349;SDS011;6744;53.190;6.576;2023-02-04T11:09:48;1.77;;;1.00;;
13349;SDS011;6744;53.190;6.576;2023-02-04T11:12:20;3.47;;;1.33;;
13349;SDS011;6744;53.190;6.576;2023-02-04T11:14:55;2.67;;;1.00;;
13349;SDS011;6744;53.190;6.576;2023-02-04T11:17:27;2.83;;;1.20;;
13349;SDS011;6744;53.190;6.576;2023-02-04T11:19:54;3.20;;;1.20;;
13349;SDS011;6744;53.190;6.576;2023-02-04T11:22:21;3.20;;;1.30;;
13349;SDS011;6744;53.190;6.576;2023-02-04T11:24:48;3.27;;;1.13;;
13349;SDS011;6744;53.190;6.576;2023-02-04T11:27:18;2.33;;;1.40;;
13349;SDS011;6744;53.190;6.576;2023-02-04T11:29:46;2.13;;;1.10;;
13349;SDS011;6744;53.190;6.576;2023-02-04T11:32:28;3.03;;;1.20;;
13349;SDS011;6744;53.190;6.576;2023-02-04T11:37:41;3.73;;;1.10;;
13349;SDS011;6744;53.190;6.576;2023-02-04T11:42:59;1.90;;;1.30;;
13349;SDS011;6744;53.190;6.576;2023-02-04T11:45:38;3.60;;;1.20;;
13349;SDS011;6744;53.190;6.576;2023-02-04T11:48:12;3.57;;;1.43;;
13349;SDS011;6744;53.190;6.576;2023-02-04T11:50:39;2.77;;;1.13;;
13349;SDS011;6744;53.190;6.576;2023-02-04T11:53:07;3.90;;;1.20;;
13349;SDS011;6744;53.190;6.576;2023-02-04T11:55:35;2.97;;;1.30;;
13349;SDS011;6744;53.190;6.576;2023-02-04T11:58:01;4.47;;;1.43;;
13349;SDS011;6744;53.190;6.576;2023-02-04T12:00:31;2.27;;;0.90;;
13349;SDS011;6744;53.190;6.576;2023-02-04T12:02:58;1.37;;;1.13;;
13349;SDS011;6744;53.190;6.576;2023-02-04T12:05:41;3.03;;;1.10;;
13349;SDS011;6744;53.190;6.576;2023-02-04T12:08:30;3.07;;;1.23;;
13349;SDS011;6744;53.190;6.576;2023-02-04T12:13:22;3.87;;;1.33;;
13349;SDS011;6744;53.190;6.576;2023-02-04T12:15:59;2.37;;;1.10;;
13349;SDS011;6744;53.190;6.576;2023-02-04T12:18:26;2.67;;;1.17;;
13349;SDS011;6744;53.190;6.576;2023-02-04T12:20:52;3.47;;;1.40;;
13349;SDS011;6744;53.190;6.576;2023-02-04T12:23:17;4.17;;;1.40;;
13349;SDS011;6744;53.190;6.576;2023-02-04T12:25:43;2.63;;;1.03;;
13349;SDS011;6744;53.190;6.576;2023-02-04T12:28:08;2.63;;;1.10;;
13349;SDS011;6744;53.190;6.576;2023-02-04T12:30:34;2.53;;;1.00;;
13349;SDS011;6744;53.190;6.576;2023-02-04T12:33:00;2.47;;;1.00;;
13349;SDS011;6744;53.190;6.576;2023-02-04T12:35:25;1.67;;;1.20;;
13349;SDS011;6744;53.190;6.576;2023-02-04T12:37:50;2.90;;;1.10;;
13349;SDS011;6744;53.190;6.576;2023-02-04T12:40:16;2.67;;;1.00;;
13349;SDS011;6744;53.190;6.576;2023-02-04T12:42:43;1.93;;;0.90;;
13349;SDS011;6744;53.190;6.576;2023-02-04T12:45:09;2.33;;;1.10;;
13349;SDS011;6744;53.190;6.576;2023-02-04T12:47:36;3.00;;;1.20;;
13349;SDS011;6744;53.190;6.576;2023-02-04T12:50:01;2.50;;;1.30;;
13349;SDS011;6744;53.190;6.576;2023-02-04T12:52:27;2.10;;;1.10;;
13349;SDS011;6744;53.190;6.576;2023-02-04T12:54:52;1.63;;;0.83;;
13349;SDS011;6744;53.190;6.576;2023-02-04T12:57:18;2.43;;;1.03;;
13349;SDS011;6744;53.190;6.576;2023-02-04T12:59:46;3.37;;;1.13;;
13349;SDS011;6744;53.190;6.576;2023-02-04T13:02:13;2.80;;;1.20;;
13349;SDS011;6744;53.190;6.576;2023-02-04T13:04:39;1.67;;;0.93;;
13349;SDS011;6744;53.190;6.576;2023-02-04T13:07:05;2.10;;;1.33;;
13349;SDS011;6744;53.190;6.576;2023-02-04T13:09:32;2.40;;;0.80;;
13349;SDS011;6744;53.190;6.576;2023-02-04T13:11:58;1.83;;;0.93;;
13349;SDS011;6744;53.190;6.576;2023-02-04T13:14:23;1.73;;;1.00;;
13349;SDS011;6744;53.190;6.576;2023-02-04T13:16:48;1.57;;;0.90;;
13349;SDS011;6744;53.190;6.576;2023-02-04T13:19:14;1.80;;;0.90;;
13349;SDS011;6744;53.190;6.576;2023-02-04T13:21:39;2.87;;;1.20;;
13349;SDS011;6744;53.190;6.576;2023-02-04T13:24:04;2.20;;;1.00;;
13349;SDS011;6744;53.190;6.576;2023-02-04T13:26:30;2.67;;;1.17;;
13349;SDS011;6744;53.190;6.576;2023-02-04T13:28:55;3.13;;;1.00;;
13349;SDS011;6744;53.190;6.576;2023-02-04T13:31:20;2.77;;;1.00;;
13349;SDS011;6744;53.190;6.576;2023-02-04T13:33:46;1.80;;;1.00;;
13349;SDS011;6744;53.190;6.576;2023-02-04T13:36:11;1.97;;;1.00;;
13349;SDS011;6744;53.190;6.576;2023-02-04T13:38:36;3.03;;;1.27;;
13349;SDS011;6744;53.190;6.576;2023-02-04T13:41:02;1.70;;;0.90;;
13349;SDS011;6744;53.190;6.576;2023-02-04T13:43:27;2.47;;;1.10;;
13349;SDS011;6744;53.190;6.576;2023-02-04T13:45:52;1.90;;;1.00;;
13349;SDS011;6744;53.190;6.576;2023-02-04T13:48:18;1.33;;;0.80;;
13349;SDS011;6744;53.190;6.576;2023-02-04T13:50:43;2.50;;;1.00;;
13349;SDS011;6744;53.190;6.576;2023-02-04T13:53:09;2.30;;;0.93;;
13349;SDS011;6744;53.190;6.576;2023-02-04T13:55:34;2.33;;;1.30;;
13349;SDS011;6744;53.190;6.576;2023-02-04T13:57:59;1.80;;;1.00;;
13349;SDS011;6744;53.190;6.576;2023-02-04T14:00:25;1.73;;;0.83;;
13349;SDS011;6744;53.190;6.576;2023-02-04T14:02:50;2.17;;;1.07;;
13349;SDS011;6744;53.190;6.576;2023-02-04T14:05:15;1.90;;;0.80;;
13349;SDS011;6744;53.190;6.576;2023-02-04T14:07:41;2.87;;;1.07;;
13349;SDS011;6744;53.190;6.576;2023-02-04T14:10:06;2.07;;;1.10;;
13349;SDS011;6744;53.190;6.576;2023-02-04T14:12:32;2.83;;;1.03;;
13349;SDS011;6744;53.190;6.576;2023-02-04T14:14:57;1.00;;;0.77;;
13349;SDS011;6744;53.190;6.576;2023-02-04T14:17:23;1.57;;;1.00;;
13349;SDS011;6744;53.190;6.576;2023-02-04T14:19:48;2.33;;;1.07;;
13349;SDS011;6744;53.190;6.576;2023-02-04T14:22:14;2.07;;;1.10;;
13349;SDS011;6744;53.190;6.576;2023-02-04T14:24:39;1.77;;;1.13;;
13349;SDS011;6744;53.190;6.576;2023-02-04T14:27:06;1.87;;;0.93;;
13349;SDS011;6744;53.190;6.576;2023-02-04T14:29:33;1.53;;;1.10;;
13349;SDS011;6744;53.190;6.576;2023-02-04T14:31:58;1.93;;;1.00;;
13349;SDS011;6744;53.190;6.576;2023-02-04T14:34:24;1.00;;;0.90;;
13349;SDS011;6744;53.190;6.576;2023-02-04T14:36:49;1.50;;;0.90;;
13349;SDS011;6744;53.190;6.576;2023-02-04T14:39:14;2.10;;;1.07;;
13349;SDS011;6744;53.190;6.576;2023-02-04T14:41:40;2.20;;;1.00;;
13349;SDS011;6744;53.190;6.576;2023-02-04T14:44:05;1.10;;;0.90;;
13349;SDS011;6744;53.190;6.576;2023-02-04T14:46:30;2.43;;;1.13;;
13349;SDS011;6744;53.190;6.576;2023-02-04T14:48:56;1.10;;;0.80;;
13349;SDS011;6744;53.190;6.576;2023-02-04T14:51:24;1.27;;;0.80;;
13349;SDS011;6744;53.190;6.576;2023-02-04T14:53:49;2.00;;;1.00;;
13349;SDS011;6744;53.190;6.576;2023-02-04T14:56:15;1.87;;;1.07;;
13349;SDS011;6744;53.190;6.576;2023-02-04T14:58:40;1.43;;;0.97;;
13349;SDS011;6744;53.190;6.576;2023-02-04T15:01:06;1.20;;;0.80;;
13349;SDS011;6744;53.190;6.576;2023-02-04T15:03:31;1.57;;;0.93;;
13349;SDS011;6744;53.190;6.576;2023-02-04T15:06:17;1.33;;;0.90;;
13349;SDS011;6744;53.190;6.576;2023-02-04T15:08:43;1.20;;;0.90;;